Airfield :
LOGIN :

Register | Disclaimer

   EN    FR    IT 

 










Legend :    VFR   Marginal VFR   IFR   Intensive IFR   Very Intensive IFR
Visi :
Ceiling :
>= 8 km
>= 3000ft
5 to 8 km
1000 to 3000 ft
1500m to 5 km
500 to 1000 ft
800 to 1500m
200 to 500 ft
< 800m
< 200 ft
Symbols :   Thunderstorms  Fog  Heavy snow  Heavy precipitations  Wind > 20 kt
SIGMETs :     Misc.  Thunderstorms  Icing  Turbulence  Mountain Waves  Volcanic Ashes






- Airport Elevation : 142 ft
- IATA code : ALC


LEAL - Alicante

CURRENT METAR :
  • 110330Z VRB02KT CAVOK 08/02 Q1021 NOSIG

EXPIRED METARs :
  • 110300Z VRB02KT CAVOK 08/03 Q1021 NOSIG
  • 110230Z VRB04KT 9999 FEW030 08/02 Q1021 NOSIG
  • 110200Z VRB05KT 9999 FEW030 07/03 Q1021 NOSIG
  • 110130Z 23003KT 170V280 9999 FEW030 07/04 Q1022 NOSIG
  • 110100Z VRB02KT 9999 FEW030 07/04 Q1022 NOSIG

TAF TAF LEAL
Valid from the 11 at 00:00 until the 12 at 00:00 UTC


102300Z 1100/1124 30007KT 9999 FEW030 TX20/1112Z TN08/1106Z
TEMPO 1100/1111 24007KT
TEMPO 1108/1111 29015G25KT
BECMG 1111/1113 30017KT
TEMPO 1112/1118 29020G32KT



MET'MAP, your aeronautical weather chart ! - Copyright ORBIFLY December 2007 - Disclaimer

ORBIFLY MET'MAP TEAM :

Programming & Development : Alexandra Zaïnal
Concept & original design : Baudouin d'Aumeries
Assistance for programming : Marc-Olivier Méhu
Technical & hardware support : Manuel Goepfert

Contact : metmap@orbifly.com




SOURCES & CREDITS :

   NOAA